createdAt,value
2022-10-11T00:02:13.362Z,14.43
2022-10-11T00:07:31.736Z,14.42
2022-10-11T00:19:24.607Z,14.43
2022-10-11T00:28:49.025Z,14.43
2022-10-11T00:55:25.584Z,14.42
2022-10-11T01:11:22.687Z,14.39
2022-10-11T01:25:14.869Z,14.39
2022-10-11T01:34:17.073Z,14.35
2022-10-11T01:37:58.237Z,14.38
2022-10-11T01:46:31.298Z,14.35
2022-10-11T02:04:32.766Z,14.33
2022-10-11T02:09:51.436Z,14.33
2022-10-11T02:20:29.037Z,14.29
2022-10-11T02:36:27.863Z,14.29
2022-10-11T02:47:05.442Z,14.28
2022-10-11T02:52:24.923Z,14.26
2022-10-11T03:03:02.462Z,14.25
2022-10-11T03:19:00.996Z,14.15
2022-10-11T03:34:59.091Z,14.09
2022-10-11T03:45:37.533Z,14.04
2022-10-11T03:50:57.045Z,14.02
2022-10-11T04:01:35.429Z,14
2022-10-11T04:06:54.195Z,13.95
2022-10-11T04:17:33.010Z,13.98
2022-10-11T04:28:12.416Z,13.97
2022-10-11T04:33:31.163Z,13.95
2022-10-11T04:44:10.381Z,13.92
2022-10-11T04:49:28.954Z,13.92
2022-10-11T05:00:07.922Z,13.91
2022-10-11T05:10:45.498Z,13.91
2022-10-11T05:16:09.718Z,13.91
2022-10-11T05:26:43.174Z,13.85
2022-10-11T05:42:41.236Z,13.82
2022-10-11T05:58:39.612Z,13.84
2022-10-11T06:10:34.183Z,13.82
2022-10-11T06:25:16.315Z,13.82
2022-10-11T06:35:54.773Z,13.85
2022-10-11T06:41:13.335Z,13.87
2022-10-11T06:51:52.647Z,13.89
2022-10-11T06:58:26.780Z,13.95
2022-10-11T07:09:29.416Z,14.02
2022-10-11T07:13:14.908Z,14.07
2022-10-11T07:29:08.401Z,14.17
2022-10-11T07:45:04.763Z,14.17
2022-10-11T07:55:43.349Z,14.19
2022-10-11T08:06:22.741Z,14.22
2022-10-11T08:11:41.469Z,14.26
2022-10-11T08:27:41.019Z,14.31
2022-10-11T08:41:33.055Z,14.38
2022-10-11T08:45:49.596Z,14.43
2022-10-11T08:48:57.762Z,14.53
2022-10-11T08:54:16.975Z,14.63
2022-10-11T09:24:07.429Z,15.37
2022-10-11T09:28:24.081Z,15.62
2022-10-11T09:31:32.501Z,16.06
2022-10-11T09:36:50.844Z,16.39
2022-10-11T10:14:34.450Z,16.83
2022-10-11T10:41:21.846Z,16.75
2022-10-11T10:49:54.633Z,16.73
2022-10-11T10:58:18.979Z,16.77
2022-10-11T11:09:25.766Z,16.79
2022-10-11T11:13:06.641Z,16.91
2022-10-11T11:23:45.483Z,17.02
2022-10-11T11:39:41.776Z,17.07
2022-10-11T11:50:20.127Z,17.08
2022-10-11T12:02:02.964Z,17.1
2022-10-11T12:06:17.691Z,17.14
2022-10-11T12:22:13.039Z,17.23
2022-10-11T12:32:52.104Z,17.27
2022-10-11T12:38:12.412Z,17.27
2022-10-11T12:48:50.877Z,17.29
2022-10-11T12:54:25.853Z,17.27
2022-10-11T13:00:44.321Z,17.27
2022-10-11T13:05:00.867Z,17.26
2022-10-11T13:10:18.951Z,17.2
2022-10-11T13:15:27.851Z,17.14
2022-10-11T13:20:58.023Z,17.14
2022-10-11T13:31:23.407Z,17.26
2022-10-11T13:47:20.840Z,17.2
2022-10-11T13:57:58.895Z,17.17
2022-10-11T14:04:33.053Z,17.12
2022-10-11T14:08:38.996Z,17.08
2022-10-11T14:13:57.869Z,17.1
2022-10-11T14:24:36.142Z,17.04
2022-10-11T14:40:34.565Z,16.91
2022-10-11T14:51:12.976Z,16.84
2022-10-11T14:56:32.023Z,16.81
2022-10-11T15:07:10.505Z,16.67
2022-10-11T15:12:29.490Z,16.65
2022-10-11T15:34:54.290Z,16.49
2022-10-11T15:39:03.548Z,16.39
2022-10-11T15:49:42.039Z,16.29
2022-10-11T15:55:00.875Z,16.26
2022-10-11T16:00:22.321Z,16.21
2022-10-11T16:05:39.408Z,16.15
2022-10-11T16:21:37.266Z,15.89
2022-10-11T16:32:16.318Z,15.72
2022-10-11T16:37:35.794Z,15.65
2022-10-11T16:48:12.778Z,15.53
2022-10-11T16:54:46.922Z,15.44
2022-10-11T17:04:12.153Z,15.31
2022-10-11T17:14:50.473Z,15.14
2022-10-11T17:20:09.913Z,15.03
2022-10-11T17:30:48.840Z,14.9
2022-10-11T17:46:46.125Z,14.71
2022-10-11T18:14:42.848Z,14.46
2022-10-11T18:29:20.789Z,14.39
2022-10-11T18:39:59.617Z,14.36
2022-10-11T18:45:18.581Z,14.33
2022-10-11T18:51:52.773Z,14.31
2022-10-11T18:55:58.605Z,14.29
2022-10-11T19:01:17.877Z,14.28
2022-10-11T19:11:56.014Z,14.24
2022-10-11T19:20:41.101Z,14.22
2022-10-11T19:29:14.128Z,14.19
2022-10-11T19:38:33.421Z,14.12
2022-10-11T19:43:52.320Z,14.12
2022-10-11T19:54:30.721Z,14.02
2022-10-11T20:08:23.325Z,13.95
2022-10-11T20:10:28.244Z,13.88
2022-10-11T20:15:47.690Z,13.81
2022-10-11T20:26:24.073Z,13.74
2022-10-11T20:37:03.114Z,13.68
2022-10-11T20:47:41.121Z,13.65
2022-10-11T20:53:00.144Z,13.65
2022-10-11T20:58:19.680Z,13.63
2022-10-11T21:03:38.723Z,13.6
2022-10-11T21:14:17.017Z,13.54
2022-10-11T21:19:36.154Z,13.53
2022-10-11T21:24:55.118Z,13.48
2022-10-11T21:30:14.516Z,13.44
2022-10-11T21:35:33.357Z,13.37
2022-10-11T22:00:04.790Z,13.1
2022-10-11T22:04:21.344Z,13.04
2022-10-11T22:12:49.132Z,12.92
2022-10-11T22:18:08.584Z,12.83
2022-10-11T22:28:46.892Z,12.79
2022-10-11T22:44:44.072Z,12.8
2022-10-11T22:55:22.306Z,12.79
2022-10-11T23:00:41.158Z,12.8
2022-10-11T23:11:18.637Z,12.76
2022-10-11T23:16:38.063Z,12.68
2022-10-11T23:32:48.385Z,12.53
2022-10-11T23:37:56.028Z,12.45
2022-10-11T23:43:15.272Z,12.39
2022-10-11T23:53:53.462Z,12.26
